Buffalo, Kentucky
Current Conditions -  °F | °C
As of 12:58 PM on Thursday 23 Oct 2014 (Local Time) from KFTK Reporting Station
Clear Clear  
Wind Chill: 13°   Ceiling: Unl
Heat Index: 13°   Visibility: 10mi
Dew Point:   Wind: 1mph
Humidity: 54%   Direction: 140°SE
Pressure: 30.22"   Gusts: NA
Location:  37.51°N, 85.7°W
Report Text: KFTK 231658Z AUTO 14001KT 10SM CLR 13/04 A3022 RMK AO2 DZB1645 SLP238 P0000 T01320041
Loading
Personal Weather Stations






























Interactive Weather Map
Tropical Storm Tracking
New forecast layout! Learn more

10-Day Weather Forecast

Advertisements
Track Severe Weather on mobile